Unicom:                    122.8

AWOS:                  118.275

Elevation           1458’ MSL

TPA:                   2500’ MSL

06/24:         5003’ L   75’ W

PAPI:       06/Left     24/Left

(Operate lights on unicom freq.)

Traffic Pattern: Left

Beacon: Sunset to Sunrise

Windsock: yes, lighted

Segmented Circle: No

 

Cleveland Center: 126.72/291.65

FSS: Altoona

[Source: ADDS]
METAR
KFKL 140456Z AUTO 22008KT 10SM CLR 10/02 A2992 RMK AO2 SLP133 T01000022 401720000 =
KFKL 140520Z 1406/1506 21008KT P6SM SCT150 FM141400 27010G18KT P6SM BKN035 FM142200 27005KT P6SM SCT040
TAF
KFKL 140520Z 1406/1506 21008KT P6SM SCT150 FM141400 27010G18KT P6SM BKN035 FM142200 27005KT P6SM SCT040 =
[Source: ADDS]
METAR
KDUJ 140453Z AUTO VRB03KT 10SM CLR 08/04 A2993 RMK AO2 SLP137 T00780039 401721006 =
KDUJ 140520Z 1406/1506 20005KT P6SM SKC FM141500 26010G18KT P6SM BKN035 FM142200 29005KT P6SM SCT040
TAF
KDUJ 140520Z 1406/1506 20005KT P6SM SKC FM141500 26010G18KT P6SM BKN035 FM142200 29005KT P6SM SCT040 =

Hangars

Hangars – A/B   $157/$173 a month.   Gravel floor/Concrete

Hangar C - Commercial hangar, concrete floor, heated. Call for pricing 814-226-9993.

Pay hangar rental year in full and receive discounted price.

Tie Downs Available.